sensor_id;sensor_type;location;lat;lon;timestamp;pressure;altitude;pressure_sealevel;temperature;humidity
10897;BME280;5501;51.176;6.470;2023-09-12T00:01:54;100718.69;;;22.31;92.44
10897;BME280;5501;51.176;6.470;2023-09-12T00:06:56;100685.03;;;22.22;93.49
10897;BME280;5501;51.176;6.470;2023-09-12T00:11:57;100716.41;;;22.37;92.84
10897;BME280;5501;51.176;6.470;2023-09-12T00:16:59;100722.22;;;22.44;92.77
10897;BME280;5501;51.176;6.470;2023-09-12T00:22:01;100756.47;;;22.45;93.02
10897;BME280;5501;51.176;6.470;2023-09-12T00:27:03;100736.09;;;22.39;95.87
10897;BME280;5501;51.176;6.470;2023-09-12T00:32:06;100732.88;;;22.34;96.93
10897;BME280;5501;51.176;6.470;2023-09-12T00:37:07;100716.66;;;22.22;98.76
10897;BME280;5501;51.176;6.470;2023-09-12T00:42:09;100714.63;;;22.49;97.34
10897;BME280;5501;51.176;6.470;2023-09-12T00:47:11;100725.69;;;22.22;99.77
10897;BME280;5501;51.176;6.470;2023-09-12T00:52:13;100721.09;;;22.23;99.20
10897;BME280;5501;51.176;6.470;2023-09-12T00:57:15;100706.53;;;22.13;99.57
10897;BME280;5501;51.176;6.470;2023-09-12T01:02:20;100731.50;;;22.05;100.00
10897;BME280;5501;51.176;6.470;2023-09-12T01:07:22;100744.34;;;21.91;100.00
10897;BME280;5501;51.176;6.470;2023-09-12T01:12:23;100739.22;;;21.99;100.00
10897;BME280;5501;51.176;6.470;2023-09-12T01:17:25;100723.66;;;22.13;100.00
10897;BME280;5501;51.176;6.470;2023-09-12T01:22:45;100718.06;;;22.04;100.00
10897;BME280;5501;51.176;6.470;2023-09-12T01:27:51;100711.72;;;22.16;100.00
10897;BME280;5501;51.176;6.470;2023-09-12T01:32:53;100716.09;;;22.06;100.00
10897;BME280;5501;51.176;6.470;2023-09-12T01:37:55;100720.00;;;22.02;100.00
10897;BME280;5501;51.176;6.470;2023-09-12T01:42:57;100700.13;;;22.14;100.00
10897;BME280;5501;51.176;6.470;2023-09-12T01:48:00;100704.84;;;21.99;100.00
10897;BME280;5501;51.176;6.470;2023-09-12T01:53:02;100727.09;;;21.92;100.00
10897;BME280;5501;51.176;6.470;2023-09-12T01:58:05;100718.59;;;22.09;100.00
10897;BME280;5501;51.176;6.470;2023-09-12T02:03:06;100737.22;;;22.13;100.00
10897;BME280;5501;51.176;6.470;2023-09-12T02:08:08;100729.63;;;22.06;100.00
10897;BME280;5501;51.176;6.470;2023-09-12T02:13:10;100732.13;;;22.09;100.00
10897;BME280;5501;51.176;6.470;2023-09-12T02:18:12;100695.41;;;22.05;100.00
10897;BME280;5501;51.176;6.470;2023-09-12T02:23:13;100676.56;;;21.80;100.00
10897;BME280;5501;51.176;6.470;2023-09-12T02:28:16;100678.00;;;21.73;100.00
10897;BME280;5501;51.176;6.470;2023-09-12T02:33:17;100709.78;;;21.82;100.00
10897;BME280;5501;51.176;6.470;2023-09-12T02:38:19;100711.06;;;21.89;100.00
10897;BME280;5501;51.176;6.470;2023-09-12T02:43:20;100715.00;;;21.85;100.00
10897;BME280;5501;51.176;6.470;2023-09-12T02:48:22;100706.25;;;21.81;100.00
10897;BME280;5501;51.176;6.470;2023-09-12T02:53:23;100695.34;;;21.94;100.00
10897;BME280;5501;51.176;6.470;2023-09-12T02:58:25;100700.81;;;21.81;100.00
10897;BME280;5501;51.176;6.470;2023-09-12T03:03:26;100684.00;;;21.89;100.00
10897;BME280;5501;51.176;6.470;2023-09-12T03:08:28;100689.16;;;21.68;100.00
10897;BME280;5501;51.176;6.470;2023-09-12T03:13:30;100692.88;;;21.55;100.00
10897;BME280;5501;51.176;6.470;2023-09-12T03:18:31;100687.38;;;21.44;100.00
10897;BME280;5501;51.176;6.470;2023-09-12T03:23:34;100656.44;;;21.71;100.00
10897;BME280;5501;51.176;6.470;2023-09-12T03:28:36;100653.91;;;21.45;100.00
10897;BME280;5501;51.176;6.470;2023-09-12T03:33:38;100660.47;;;21.30;100.00
10897;BME280;5501;51.176;6.470;2023-09-12T03:38:40;100664.28;;;21.51;100.00
10897;BME280;5501;51.176;6.470;2023-09-12T03:43:42;100645.66;;;21.59;100.00
10897;BME280;5501;51.176;6.470;2023-09-12T03:48:43;100639.44;;;21.69;100.00
10897;BME280;5501;51.176;6.470;2023-09-12T03:53:45;100632.63;;;21.64;100.00
10897;BME280;5501;51.176;6.470;2023-09-12T03:58:49;100635.66;;;21.59;100.00
10897;BME280;5501;51.176;6.470;2023-09-12T04:03:50;100638.72;;;21.55;100.00
10897;BME280;5501;51.176;6.470;2023-09-12T04:08:52;100641.63;;;21.28;100.00
10897;BME280;5501;51.176;6.470;2023-09-12T04:13:54;100657.06;;;21.39;100.00
10897;BME280;5501;51.176;6.470;2023-09-12T04:18:55;100658.69;;;21.41;100.00
10897;BME280;5501;51.176;6.470;2023-09-12T04:23:57;100653.22;;;21.54;100.00
10897;BME280;5501;51.176;6.470;2023-09-12T04:28:59;100653.34;;;21.88;100.00
10897;BME280;5501;51.176;6.470;2023-09-12T04:34:01;100651.47;;;21.65;100.00
10897;BME280;5501;51.176;6.470;2023-09-12T04:39:03;100637.22;;;21.51;100.00
10897;BME280;5501;51.176;6.470;2023-09-12T04:44:08;100625.47;;;21.75;100.00
10897;BME280;5501;51.176;6.470;2023-09-12T04:49:10;100639.84;;;21.40;100.00
10897;BME280;5501;51.176;6.470;2023-09-12T04:54:11;100646.31;;;21.50;100.00
10897;BME280;5501;51.176;6.470;2023-09-12T04:59:13;100664.03;;;21.54;100.00
10897;BME280;5501;51.176;6.470;2023-09-12T05:04:15;100667.41;;;21.57;100.00
10897;BME280;5501;51.176;6.470;2023-09-12T05:09:16;100680.00;;;21.82;100.00
10897;BME280;5501;51.176;6.470;2023-09-12T05:14:18;100689.47;;;21.64;100.00
10897;BME280;5501;51.176;6.470;2023-09-12T05:19:21;100702.03;;;21.65;100.00
10897;BME280;5501;51.176;6.470;2023-09-12T05:24:22;100709.28;;;21.77;100.00
10897;BME280;5501;51.176;6.470;2023-09-12T05:29:24;100781.88;;;21.72;100.00
10897;BME280;5501;51.176;6.470;2023-09-12T05:34:26;100819.53;;;21.62;100.00
10897;BME280;5501;51.176;6.470;2023-09-12T05:39:27;100821.28;;;21.26;100.00
10897;BME280;5501;51.176;6.470;2023-09-12T05:44:29;100773.97;;;20.94;100.00
10897;BME280;5501;51.176;6.470;2023-09-12T05:49:31;100729.91;;;20.79;100.00
10897;BME280;5501;51.176;6.470;2023-09-12T05:54:33;100686.94;;;20.11;100.00
10897;BME280;5501;51.176;6.470;2023-09-12T05:59:37;100675.78;;;20.42;100.00
10897;BME280;5501;51.176;6.470;2023-09-12T06:04:39;100660.66;;;20.52;100.00
10897;BME280;5501;51.176;6.470;2023-09-12T06:09:41;100673.81;;;20.44;100.00
10897;BME280;5501;51.176;6.470;2023-09-12T06:14:42;100689.97;;;20.70;100.00
10897;BME280;5501;51.176;6.470;2023-09-12T06:19:43;100698.31;;;20.80;100.00
10897;BME280;5501;51.176;6.470;2023-09-12T06:24:45;100750.19;;;20.85;100.00
10897;BME280;5501;51.176;6.470;2023-09-12T06:29:49;100741.16;;;20.86;100.00
10897;BME280;5501;51.176;6.470;2023-09-12T06:34:52;100750.53;;;20.80;100.00
10897;BME280;5501;51.176;6.470;2023-09-12T06:39:53;100744.59;;;20.88;100.00
10897;BME280;5501;51.176;6.470;2023-09-12T06:44:55;100737.66;;;20.84;100.00
10897;BME280;5501;51.176;6.470;2023-09-12T06:49:56;100733.69;;;20.77;100.00
10897;BME280;5501;51.176;6.470;2023-09-12T06:54:58;100734.25;;;20.94;100.00
10897;BME280;5501;51.176;6.470;2023-09-12T06:59:59;100730.16;;;21.01;100.00
10897;BME280;5501;51.176;6.470;2023-09-12T07:05:01;100719.56;;;21.11;100.00
10897;BME280;5501;51.176;6.470;2023-09-12T07:10:05;100703.53;;;21.20;100.00
10897;BME280;5501;51.176;6.470;2023-09-12T07:15:24;100682.56;;;21.11;100.00
10897;BME280;5501;51.176;6.470;2023-09-12T07:20:26;100693.56;;;21.21;100.00
10897;BME280;5501;51.176;6.470;2023-09-12T07:25:27;100691.41;;;21.26;100.00
10897;BME280;5501;51.176;6.470;2023-09-12T07:30:29;100690.78;;;21.10;100.00
10897;BME280;5501;51.176;6.470;2023-09-12T07:35:31;100710.00;;;21.30;100.00
10897;BME280;5501;51.176;6.470;2023-09-12T07:40:33;100714.53;;;21.55;100.00
10897;BME280;5501;51.176;6.470;2023-09-12T07:45:35;100708.84;;;21.58;100.00
10897;BME280;5501;51.176;6.470;2023-09-12T07:50:39;100703.91;;;21.39;100.00
10897;BME280;5501;51.176;6.470;2023-09-12T07:55:41;100719.47;;;21.61;100.00
10897;BME280;5501;51.176;6.470;2023-09-12T08:00:47;100711.25;;;21.75;100.00
10897;BME280;5501;51.176;6.470;2023-09-12T08:05:56;100718.16;;;21.79;100.00
10897;BME280;5501;51.176;6.470;2023-09-12T08:10:58;100719.69;;;21.83;100.00
10897;BME280;5501;51.176;6.470;2023-09-12T08:15:59;100726.50;;;21.76;100.00
10897;BME280;5501;51.176;6.470;2023-09-12T08:21:01;100741.75;;;21.89;100.00
10897;BME280;5501;51.176;6.470;2023-09-12T08:26:03;100760.25;;;22.19;100.00
10897;BME280;5501;51.176;6.470;2023-09-12T08:31:05;100761.31;;;22.29;100.00
10897;BME280;5501;51.176;6.470;2023-09-12T08:36:06;100769.50;;;22.40;100.00
10897;BME280;5501;51.176;6.470;2023-09-12T08:41:08;100776.75;;;22.63;100.00
10897;BME280;5501;51.176;6.470;2023-09-12T08:46:10;100780.97;;;22.43;100.00
10897;BME280;5501;51.176;6.470;2023-09-12T08:51:12;100787.25;;;22.44;100.00
10897;BME280;5501;51.176;6.470;2023-09-12T08:56:14;100801.53;;;22.46;100.00
10897;BME280;5501;51.176;6.470;2023-09-12T09:01:18;100805.78;;;22.50;100.00
10897;BME280;5501;51.176;6.470;2023-09-12T09:06:21;100810.47;;;22.48;100.00
10897;BME280;5501;51.176;6.470;2023-09-12T09:11:24;100805.16;;;22.70;100.00
10897;BME280;5501;51.176;6.470;2023-09-12T09:16:29;100800.28;;;22.86;100.00
10897;BME280;5501;51.176;6.470;2023-09-12T09:21:33;100800.81;;;23.02;100.00
10897;BME280;5501;51.176;6.470;2023-09-12T09:26:46;100800.50;;;22.83;100.00
10897;BME280;5501;51.176;6.470;2023-09-12T09:31:49;100795.63;;;22.99;100.00
10897;BME280;5501;51.176;6.470;2023-09-12T09:36:52;100791.09;;;23.10;100.00
10897;BME280;5501;51.176;6.470;2023-09-12T09:41:55;100792.47;;;23.16;100.00
10897;BME280;5501;51.176;6.470;2023-09-12T09:47:00;100791.28;;;23.31;100.00
10897;BME280;5501;51.176;6.470;2023-09-12T09:52:07;100783.91;;;23.33;100.00
10897;BME280;5501;51.176;6.470;2023-09-12T09:57:08;100781.91;;;23.35;100.00
10897;BME280;5501;51.176;6.470;2023-09-12T10:02:16;100775.41;;;23.48;100.00
10897;BME280;5501;51.176;6.470;2023-09-12T10:07:21;100781.31;;;23.53;100.00
10897;BME280;5501;51.176;6.470;2023-09-12T10:12:24;100777.50;;;23.67;97.83
10897;BME280;5501;51.176;6.470;2023-09-12T10:17:30;100778.22;;;23.80;100.00
10897;BME280;5501;51.176;6.470;2023-09-12T10:22:41;100783.91;;;23.88;97.91
10897;BME280;5501;51.176;6.470;2023-09-12T10:27:45;100785.91;;;23.75;95.83
10897;BME280;5501;51.176;6.470;2023-09-12T10:32:47;100781.69;;;23.82;95.22
10897;BME280;5501;51.176;6.470;2023-09-12T10:37:50;100775.38;;;24.03;95.50
10897;BME280;5501;51.176;6.470;2023-09-12T10:42:52;100774.31;;;23.95;93.46
10897;BME280;5501;51.176;6.470;2023-09-12T10:47:56;100752.06;;;23.68;95.29
10897;BME280;5501;51.176;6.470;2023-09-12T10:53:11;100752.28;;;23.87;94.75
10897;BME280;5501;51.176;6.470;2023-09-12T10:58:13;100749.84;;;23.95;94.25
10897;BME280;5501;51.176;6.470;2023-09-12T11:08:29;100756.97;;;24.50;93.54
10897;BME280;5501;51.176;6.470;2023-09-12T11:13:38;100746.44;;;24.56;92.33
10897;BME280;5501;51.176;6.470;2023-09-12T11:19:12;100769.44;;;24.63;90.26
10897;BME280;5501;51.176;6.470;2023-09-12T11:24:15;100766.66;;;24.74;90.40
10897;BME280;5501;51.176;6.470;2023-09-12T11:29:17;100781.22;;;24.84;90.02
10897;BME280;5501;51.176;6.470;2023-09-12T11:34:19;100780.88;;;24.98;86.94
10897;BME280;5501;51.176;6.470;2023-09-12T11:39:30;100772.66;;;25.09;86.26
10897;BME280;5501;51.176;6.470;2023-09-12T11:44:32;100780.06;;;25.07;88.04
10897;BME280;5501;51.176;6.470;2023-09-12T11:49:39;100786.91;;;25.02;81.25
10897;BME280;5501;51.176;6.470;2023-09-12T11:54:41;100788.56;;;25.14;81.78
10897;BME280;5501;51.176;6.470;2023-09-12T11:59:44;100791.66;;;25.20;82.39
10897;BME280;5501;51.176;6.470;2023-09-12T12:04:53;100789.25;;;25.27;80.08
10897;BME280;5501;51.176;6.470;2023-09-12T12:09:56;100778.91;;;25.41;78.59
10897;BME280;5501;51.176;6.470;2023-09-12T12:14:57;100768.66;;;25.54;81.11
10897;BME280;5501;51.176;6.470;2023-09-12T12:19:59;100757.28;;;25.79;78.37
10897;BME280;5501;51.176;6.470;2023-09-12T12:25:11;100756.09;;;25.72;78.64
10897;BME280;5501;51.176;6.470;2023-09-12T12:30:13;100761.38;;;25.34;79.57
10897;BME280;5501;51.176;6.470;2023-09-12T12:35:19;100750.28;;;25.47;81.37
10897;BME280;5501;51.176;6.470;2023-09-12T12:40:41;100735.16;;;25.73;78.22
10897;BME280;5501;51.176;6.470;2023-09-12T12:45:53;100727.69;;;25.75;77.25
10897;BME280;5501;51.176;6.470;2023-09-12T12:50:56;100722.88;;;25.48;77.66
10897;BME280;5501;51.176;6.470;2023-09-12T12:55:59;100712.22;;;25.75;79.61
10897;BME280;5501;51.176;6.470;2023-09-12T13:01:01;100702.47;;;25.73;77.51
10897;BME280;5501;51.176;6.470;2023-09-12T13:06:02;100704.50;;;25.90;77.44
10897;BME280;5501;51.176;6.470;2023-09-12T13:11:04;100690.22;;;25.97;75.66
10897;BME280;5501;51.176;6.470;2023-09-12T13:16:07;100699.72;;;26.12;72.73
10897;BME280;5501;51.176;6.470;2023-09-12T13:21:11;100699.75;;;26.31;74.33
10897;BME280;5501;51.176;6.470;2023-09-12T13:26:12;100690.84;;;26.48;70.48
10897;BME280;5501;51.176;6.470;2023-09-12T13:31:14;100697.84;;;26.13;74.07
10897;BME280;5501;51.176;6.470;2023-09-12T13:36:15;100684.44;;;25.91;74.27
10897;BME280;5501;51.176;6.470;2023-09-12T13:41:17;100677.22;;;25.71;73.65
10897;BME280;5501;51.176;6.470;2023-09-12T13:46:19;100672.88;;;25.49;78.94
10897;BME280;5501;51.176;6.470;2023-09-12T13:51:20;100674.84;;;25.47;76.76
10897;BME280;5501;51.176;6.470;2023-09-12T13:56:22;100682.69;;;25.80;72.93
10897;BME280;5501;51.176;6.470;2023-09-12T14:01:24;100676.47;;;26.08;73.24
10897;BME280;5501;51.176;6.470;2023-09-12T14:06:35;100679.31;;;25.97;71.70
10897;BME280;5501;51.176;6.470;2023-09-12T14:11:37;100675.28;;;26.01;71.21
10897;BME280;5501;51.176;6.470;2023-09-12T14:16:39;100664.41;;;26.30;70.68
10897;BME280;5501;51.176;6.470;2023-09-12T14:21:43;100667.28;;;26.47;71.30
10897;BME280;5501;51.176;6.470;2023-09-12T14:26:50;100648.63;;;26.33;71.56
10897;BME280;5501;51.176;6.470;2023-09-12T14:31:53;100647.19;;;26.48;72.69
10897;BME280;5501;51.176;6.470;2023-09-12T14:36:59;100649.22;;;26.46;70.50
10897;BME280;5501;51.176;6.470;2023-09-12T14:42:01;100650.06;;;26.18;72.13
10897;BME280;5501;51.176;6.470;2023-09-12T14:47:06;100647.78;;;26.23;71.59
10897;BME280;5501;51.176;6.470;2023-09-12T14:52:08;100636.31;;;26.10;72.56
10897;BME280;5501;51.176;6.470;2023-09-12T14:57:25;100631.97;;;26.17;72.68
10897;BME280;5501;51.176;6.470;2023-09-12T15:02:27;100623.34;;;26.03;73.11
10897;BME280;5501;51.176;6.470;2023-09-12T15:07:34;100615.28;;;25.73;75.42
10897;BME280;5501;51.176;6.470;2023-09-12T15:12:38;100611.00;;;25.80;73.80
10897;BME280;5501;51.176;6.470;2023-09-12T15:17:39;100619.31;;;25.78;73.82
10897;BME280;5501;51.176;6.470;2023-09-12T15:22:42;100619.34;;;25.97;73.83
10897;BME280;5501;51.176;6.470;2023-09-12T15:27:46;100632.84;;;26.08;75.35
10897;BME280;5501;51.176;6.470;2023-09-12T15:32:48;100621.38;;;26.14;72.57
10897;BME280;5501;51.176;6.470;2023-09-12T15:37:49;100623.66;;;26.28;71.60
10897;BME280;5501;51.176;6.470;2023-09-12T15:42:52;100620.50;;;26.23;72.19
10897;BME280;5501;51.176;6.470;2023-09-12T15:47:54;100616.47;;;26.18;72.57
10897;BME280;5501;51.176;6.470;2023-09-12T15:52:56;100611.63;;;26.12;71.27
10897;BME280;5501;51.176;6.470;2023-09-12T15:57:58;100601.13;;;26.07;72.95
10897;BME280;5501;51.176;6.470;2023-09-12T16:02:59;100617.91;;;26.12;71.03
10897;BME280;5501;51.176;6.470;2023-09-12T16:08:01;100603.81;;;25.88;74.11
10897;BME280;5501;51.176;6.470;2023-09-12T16:13:03;100606.22;;;25.53;76.52
10897;BME280;5501;51.176;6.470;2023-09-12T16:18:05;100612.66;;;25.43;76.84
10897;BME280;5501;51.176;6.470;2023-09-12T16:23:06;100622.41;;;25.25;77.58
10897;BME280;5501;51.176;6.470;2023-09-12T16:28:08;100615.66;;;25.19;78.70
10897;BME280;5501;51.176;6.470;2023-09-12T16:33:09;100622.56;;;25.23;79.31
10897;BME280;5501;51.176;6.470;2023-09-12T16:38:11;100605.59;;;25.10;79.07
10897;BME280;5501;51.176;6.470;2023-09-12T16:43:13;100592.00;;;25.10;80.45
10897;BME280;5501;51.176;6.470;2023-09-12T16:48:14;100602.00;;;25.10;80.03
10897;BME280;5501;51.176;6.470;2023-09-12T16:53:16;100600.41;;;24.98;80.83
10897;BME280;5501;51.176;6.470;2023-09-12T16:58:19;100607.25;;;24.92;80.95
10897;BME280;5501;51.176;6.470;2023-09-12T17:03:20;100618.59;;;24.77;82.00
10897;BME280;5501;51.176;6.470;2023-09-12T17:08:22;100624.53;;;24.61;83.33
10897;BME280;5501;51.176;6.470;2023-09-12T17:13:24;100641.75;;;24.71;81.53
10897;BME280;5501;51.176;6.470;2023-09-12T17:18:27;100651.97;;;24.58;82.60
10897;BME280;5501;51.176;6.470;2023-09-12T17:23:28;100657.78;;;24.33;85.69
10897;BME280;5501;51.176;6.470;2023-09-12T17:28:30;100665.56;;;24.38;86.28
10897;BME280;5501;51.176;6.470;2023-09-12T17:33:31;100663.31;;;24.43;86.23
10897;BME280;5501;51.176;6.470;2023-09-12T17:38:33;100666.41;;;24.38;86.83
10897;BME280;5501;51.176;6.470;2023-09-12T17:43:35;100671.53;;;24.00;90.94
10897;BME280;5501;51.176;6.470;2023-09-12T17:48:38;100690.31;;;23.92;96.18
10897;BME280;5501;51.176;6.470;2023-09-12T17:53:42;100693.56;;;23.53;100.00
10897;BME280;5501;51.176;6.470;2023-09-12T17:58:44;100705.78;;;23.25;100.00
10897;BME280;5501;51.176;6.470;2023-09-12T18:03:47;100713.03;;;23.14;100.00
10897;BME280;5501;51.176;6.470;2023-09-12T18:08:50;100701.91;;;22.95;100.00
10897;BME280;5501;51.176;6.470;2023-09-12T18:13:51;100701.88;;;22.73;100.00
10897;BME280;5501;51.176;6.470;2023-09-12T18:18:53;100710.47;;;22.67;100.00
10897;BME280;5501;51.176;6.470;2023-09-12T18:23:54;100711.38;;;22.44;100.00
10897;BME280;5501;51.176;6.470;2023-09-12T18:28:56;100707.28;;;22.38;100.00
10897;BME280;5501;51.176;6.470;2023-09-12T18:33:58;100716.22;;;22.28;100.00
10897;BME280;5501;51.176;6.470;2023-09-12T18:39:00;100707.09;;;22.29;100.00
10897;BME280;5501;51.176;6.470;2023-09-12T18:44:02;100709.03;;;22.16;100.00
10897;BME280;5501;51.176;6.470;2023-09-12T18:49:04;100712.34;;;22.19;100.00
10897;BME280;5501;51.176;6.470;2023-09-12T18:54:06;100721.97;;;22.23;100.00
10897;BME280;5501;51.176;6.470;2023-09-12T18:59:08;100719.38;;;22.22;100.00
10897;BME280;5501;51.176;6.470;2023-09-12T19:04:23;100725.28;;;22.16;100.00
10897;BME280;5501;51.176;6.470;2023-09-12T19:09:25;100726.66;;;22.21;100.00
10897;BME280;5501;51.176;6.470;2023-09-12T19:14:27;100733.59;;;22.25;100.00
10897;BME280;5501;51.176;6.470;2023-09-12T19:19:29;100742.34;;;22.29;100.00
10897;BME280;5501;51.176;6.470;2023-09-12T19:24:30;100726.28;;;22.26;100.00
10897;BME280;5501;51.176;6.470;2023-09-12T19:29:49;100712.19;;;22.10;100.00
10897;BME280;5501;51.176;6.470;2023-09-12T19:34:51;100694.81;;;22.12;100.00
10897;BME280;5501;51.176;6.470;2023-09-12T19:39:53;100670.56;;;22.11;100.00
10897;BME280;5501;51.176;6.470;2023-09-12T19:44:55;100664.13;;;22.01;100.00
10897;BME280;5501;51.176;6.470;2023-09-12T19:49:56;100661.31;;;22.02;100.00
10897;BME280;5501;51.176;6.470;2023-09-12T19:54:58;100647.25;;;21.97;100.00
10897;BME280;5501;51.176;6.470;2023-09-12T19:59:59;100646.09;;;21.89;100.00
10897;BME280;5501;51.176;6.470;2023-09-12T20:10:27;100631.00;;;21.97;100.00
10897;BME280;5501;51.176;6.470;2023-09-12T20:15:32;100647.41;;;22.07;100.00
10897;BME280;5501;51.176;6.470;2023-09-12T20:20:35;100663.66;;;22.07;100.00
10897;BME280;5501;51.176;6.470;2023-09-12T20:25:37;100696.16;;;21.83;100.00
10897;BME280;5501;51.176;6.470;2023-09-12T20:30:38;100714.91;;;21.74;100.00
10897;BME280;5501;51.176;6.470;2023-09-12T20:35:40;100703.00;;;21.64;100.00
10897;BME280;5501;51.176;6.470;2023-09-12T20:40:41;100702.13;;;21.76;100.00
10897;BME280;5501;51.176;6.470;2023-09-12T20:45:44;100700.16;;;21.78;100.00
10897;BME280;5501;51.176;6.470;2023-09-12T20:50:46;100687.44;;;21.55;100.00
10897;BME280;5501;51.176;6.470;2023-09-12T20:55:48;100693.91;;;21.65;100.00
10897;BME280;5501;51.176;6.470;2023-09-12T21:00:49;100703.63;;;21.67;100.00
10897;BME280;5501;51.176;6.470;2023-09-12T21:05:51;100711.88;;;21.66;100.00
10897;BME280;5501;51.176;6.470;2023-09-12T21:10:52;100716.03;;;21.59;100.00
10897;BME280;5501;51.176;6.470;2023-09-12T21:15:55;100727.06;;;21.56;100.00
10897;BME280;5501;51.176;6.470;2023-09-12T21:20:56;100729.50;;;21.23;100.00
10897;BME280;5501;51.176;6.470;2023-09-12T21:25:58;100739.22;;;21.38;100.00
10897;BME280;5501;51.176;6.470;2023-09-12T21:30:59;100737.28;;;21.15;100.00
10897;BME280;5501;51.176;6.470;2023-09-12T21:36:01;100739.13;;;21.27;100.00
10897;BME280;5501;51.176;6.470;2023-09-12T21:41:04;100739.78;;;21.18;100.00
10897;BME280;5501;51.176;6.470;2023-09-12T21:46:05;100742.91;;;21.24;100.00
10897;BME280;5501;51.176;6.470;2023-09-12T21:51:07;100739.44;;;20.97;100.00
10897;BME280;5501;51.176;6.470;2023-09-12T21:56:12;100740.09;;;21.26;100.00
10897;BME280;5501;51.176;6.470;2023-09-12T22:01:14;100735.13;;;21.20;100.00
10897;BME280;5501;51.176;6.470;2023-09-12T22:06:15;100733.59;;;21.28;100.00
10897;BME280;5501;51.176;6.470;2023-09-12T22:11:17;100731.84;;;21.27;100.00
10897;BME280;5501;51.176;6.470;2023-09-12T22:16:18;100731.69;;;21.18;100.00
10897;BME280;5501;51.176;6.470;2023-09-12T22:21:20;100726.88;;;21.09;100.00
10897;BME280;5501;51.176;6.470;2023-09-12T22:26:22;100731.25;;;21.11;100.00
10897;BME280;5501;51.176;6.470;2023-09-12T22:31:24;100735.78;;;21.11;100.00
10897;BME280;5501;51.176;6.470;2023-09-12T22:36:26;100747.56;;;21.10;100.00
10897;BME280;5501;51.176;6.470;2023-09-12T22:41:28;100739.47;;;21.10;100.00
10897;BME280;5501;51.176;6.470;2023-09-12T22:46:30;100744.88;;;21.10;100.00
10897;BME280;5501;51.176;6.470;2023-09-12T22:51:31;100747.16;;;21.03;100.00
10897;BME280;5501;51.176;6.470;2023-09-12T22:56:33;100741.69;;;20.91;100.00
10897;BME280;5501;51.176;6.470;2023-09-12T23:01:34;100736.16;;;20.80;100.00
10897;BME280;5501;51.176;6.470;2023-09-12T23:06:36;100738.75;;;20.69;100.00
10897;BME280;5501;51.176;6.470;2023-09-12T23:11:38;100737.03;;;20.80;100.00
10897;BME280;5501;51.176;6.470;2023-09-12T23:16:39;100737.22;;;20.77;100.00
10897;BME280;5501;51.176;6.470;2023-09-12T23:21:41;100727.13;;;20.93;100.00
10897;BME280;5501;51.176;6.470;2023-09-12T23:26:42;100727.09;;;20.81;100.00
10897;BME280;5501;51.176;6.470;2023-09-12T23:31:44;100722.44;;;20.83;100.00
10897;BME280;5501;51.176;6.470;2023-09-12T23:36:45;100711.81;;;20.80;100.00
10897;BME280;5501;51.176;6.470;2023-09-12T23:41:47;100718.41;;;20.76;100.00
10897;BME280;5501;51.176;6.470;2023-09-12T23:46:48;100712.16;;;20.75;100.00
10897;BME280;5501;51.176;6.470;2023-09-12T23:51:50;100708.38;;;20.78;100.00
10897;BME280;5501;51.176;6.470;2023-09-12T23:56:52;100711.41;;;20.86;100.00
